Time;durP1;ratioP1;P1;durP2;ratioP2;P2;SDS_P1;SDS_P2;PMS_P1;PMS_P2;Temp;Humidity;BMP_temperature;BMP_pressure;BME280_temperature;BME280_humidity;BME280_pressure;Samples;Min_cycle;Max_cycle;Signal;HPM_P1;HPM_P2
2023/01/24 00:00:14;;;;;;;;;;;29.50;95.70;;;;;;5033851;28;20027;-70
2023/01/24 00:02:41;;;;;;;;;;;29.60;96.90;;;;;;5032684;28;19917;-70
2023/01/24 00:05:08;;;;;;;;;;;29.90;96.00;;;;;;5032196;28;20365;-70
2023/01/24 00:07:34;;;;;;;;;;;30.00;96.60;;;;;;5034635;28;19924;-71
2023/01/24 00:10:01;;;;;;;;;;;30.00;96.20;;;;;;5031941;28;19912;-70
2023/01/24 00:12:28;;;;;;;;;;;30.00;95.90;;;;;;5029538;28;20018;-70
2023/01/24 00:14:57;;;;;;;;;;;30.00;95.40;;;;;;5027244;28;19920;-70
2023/01/24 00:17:24;;;;;;;;;;;29.90;95.70;;;;;;5028982;28;20008;-71
2023/01/24 00:19:50;;;;;;;;;;;30.10;95.70;;;;;;5030180;28;20524;-70
2023/01/24 00:22:17;;;;;;;;;;;30.20;95.30;;;;;;5032645;28;20636;-71
2023/01/24 00:24:44;;;;;;;;;;;30.10;95.60;;;;;;5029500;28;20319;-71
2023/01/24 00:27:10;;;;;;;;;;;30.30;95.90;;;;;;5031314;28;19924;-71
2023/01/24 00:29:37;;;;;;;;;;;30.40;95.50;;;;;;5028178;28;19944;-70
2023/01/24 00:32:04;;;;;;;;;;;30.70;95.20;;;;;;5029250;28;19909;-71
2023/01/24 00:34:30;;;;;;;;;;;30.70;95.00;;;;;;5027792;28;19921;-70
2023/01/24 00:36:57;;;;;;;;;;;30.80;94.70;;;;;;5027945;28;22240;-71
2023/01/24 00:39:24;;;;;;;;;;;30.70;94.10;;;;;;5027681;28;19916;-71
2023/01/24 00:41:50;;;;;;;;;;;30.70;94.00;;;;;;5027914;28;19958;-71
2023/01/24 00:44:17;;;;;;;;;;;30.50;94.30;;;;;;5028721;28;19947;-72
2023/01/24 00:46:44;;;;;;;;;;;30.40;94.30;;;;;;5034206;28;19924;-69
2023/01/24 00:49:10;;;;;;;;;;;30.40;94.20;;;;;;5033992;28;19913;-69
2023/01/24 00:51:37;;;;;;;;;;;30.40;94.10;;;;;;5033844;28;20192;-69
2023/01/24 00:54:03;;;;;;;;;;;30.50;94.70;;;;;;5032495;28;19925;-70
2023/01/24 00:56:30;;;;;;;;;;;30.40;94.30;;;;;;5032694;28;19919;-70
2023/01/24 00:58:57;;;;;;;;;;;30.50;94.60;;;;;;5033035;28;19917;-71
2023/01/24 01:01:24;;;;;;;;;;;30.80;94.70;;;;;;5032322;28;19916;-71
2023/01/24 01:03:54;;;;;;;;;;;31.10;94.30;;;;;;5047676;28;19924;-71
2023/01/24 01:06:20;;;;;;;;;;;31.20;94.20;;;;;;5032390;28;19924;-71
2023/01/24 01:08:47;;;;;;;;;;;31.30;94.10;;;;;;5032990;28;19924;-70
2023/01/24 01:11:14;;;;;;;;;;;31.30;93.70;;;;;;5040760;28;20348;-72
2023/01/24 01:13:40;;;;;;;;;;;31.60;94.10;;;;;;5034007;28;19928;-70
2023/01/24 01:16:09;;;;;;;;;;;31.70;93.40;;;;;;5032833;28;19951;-72
2023/01/24 01:18:37;;;;;;;;;;;31.80;93.30;;;;;;5032112;28;19913;-71
2023/01/24 01:21:04;;;;;;;;;;;31.90;93.30;;;;;;5033105;28;19919;-70
2023/01/24 01:23:33;;;;;;;;;;;32.00;92.90;;;;;;5032312;28;20035;-71
2023/01/24 01:26:05;;;;;;;;;;;32.10;93.30;;;;;;5033114;28;19920;-71
2023/01/24 01:28:32;;;;;;;;;;;31.90;93.20;;;;;;5032606;28;19999;-71
2023/01/24 01:30:58;;;;;;;;;;;32.20;93.30;;;;;;5033769;28;19982;-71
2023/01/24 01:33:25;;;;;;;;;;;32.30;93.40;;;;;;5035435;28;19929;-70
2023/01/24 01:35:52;;;;;;;;;;;32.40;92.40;;;;;;5038082;28;19943;-71
2023/01/24 01:38:27;;;;;;;;;;;32.20;92.30;;;;;;5036342;28;20390;-70
2023/01/24 01:40:54;;;;;;;;;;;32.30;92.90;;;;;;5041122;28;20354;-72
2023/01/24 01:43:22;;;;;;;;;;;32.00;92.30;;;;;;5034013;28;20818;-72
2023/01/24 01:45:49;;;;;;;;;;;31.70;92.70;;;;;;5034672;28;20263;-71
2023/01/24 01:48:22;;;;;;;;;;;31.90;93.10;;;;;;5032316;28;19931;-72
2023/01/24 01:51:08;;;;;;;;;;;32.00;92.40;;;;;;5032380;28;19948;-71
2023/01/24 01:53:37;;;;;;;;;;;32.30;92.70;;;;;;5011081;28;19932;-71
2023/01/24 01:56:08;;;;;;;;;;;32.30;92.50;;;;;;5032345;28;19923;-72
2023/01/24 01:58:35;;;;;;;;;;;32.30;92.40;;;;;;5030927;28;19913;-72
2023/01/24 02:01:02;;;;;;;;;;;32.70;91.90;;;;;;5033072;28;19938;-72
2023/01/24 02:03:39;;;;;;;;;;;32.70;92.20;;;;;;5031628;28;19923;-71
2023/01/24 02:06:08;;;;;;;;;;;32.90;92.00;;;;;;5031926;28;19935;-72
2023/01/24 02:08:34;;;;;;;;;;;32.90;92.00;;;;;;5031858;28;19962;-71
2023/01/24 02:13:46;;;;;;;;;;;33.00;92.10;;;;;;5032483;28;19970;-71
2023/01/24 02:16:14;;;;;;;;;;;33.50;90.90;;;;;;5031419;28;19912;-72
2023/01/24 02:18:41;;;;;;;;;;;33.50;91.50;;;;;;5029921;28;19917;-71
2023/01/24 02:21:15;;;;;;;;;;;33.20;91.30;;;;;;5032877;28;19917;-72
2023/01/24 02:24:00;;;;;;;;;;;33.20;92.20;;;;;;5031477;28;19956;-70
2023/01/24 02:26:27;;;;;;;;;;;33.30;90.90;;;;;;5032960;28;19920;-71
2023/01/24 02:28:54;;;;;;;;;;;33.00;90.80;;;;;;5030807;28;20443;-73
2023/01/24 02:31:21;;;;;;;;;;;33.10;91.90;;;;;;5032621;28;19991;-72
2023/01/24 02:33:48;;;;;;;;;;;33.50;91.30;;;;;;5030029;28;19925;-71
2023/01/24 02:36:15;;;;;;;;;;;33.70;91.30;;;;;;5047701;28;19916;-71
2023/01/24 02:38:44;;;;;;;;;;;33.80;91.00;;;;;;5030630;28;19942;-71
2023/01/24 02:41:11;;;;;;;;;;;33.80;90.00;;;;;;5031608;28;19912;-72
2023/01/24 02:43:43;;;;;;;;;;;33.30;90.80;;;;;;5031599;28;20317;-71
2023/01/24 02:46:10;;;;;;;;;;;32.70;91.40;;;;;;5037627;28;19919;-71
2023/01/24 02:48:36;;;;;;;;;;;32.30;91.10;;;;;;5031025;28;19916;-71
2023/01/24 02:53:48;;;;;;;;;;;32.90;91.20;;;;;;5030746;28;20386;-71
2023/01/24 02:58:59;;;;;;;;;;;32.90;90.40;;;;;;5031798;28;19923;-71
2023/01/24 03:01:26;;;;;;;;;;;33.40;91.00;;;;;;5029869;28;19916;-71
2023/01/24 03:03:53;;;;;;;;;;;33.60;88.50;;;;;;5030679;28;20370;-70
2023/01/24 03:06:19;;;;;;;;;;;33.90;89.90;;;;;;5030926;28;19922;-71
2023/01/24 03:08:46;;;;;;;;;;;34.00;87.80;;;;;;5042379;28;20401;-71
2023/01/24 03:11:13;;;;;;;;;;;34.00;87.90;;;;;;5030853;28;19963;-71
2023/01/24 03:35:53;;;;;;;;;;;35.80;88.00;;;;;;5031343;28;19929;-68
2023/01/24 03:41:08;;;;;;;;;;;36.50;86.30;;;;;;5029664;28;20596;-70
2023/01/24 03:43:34;;;;;;;;;;;36.40;85.30;;;;;;5030450;28;20303;-69
2023/01/24 03:46:01;;;;;;;;;;;36.30;85.50;;;;;;5030648;28;19916;-71
2023/01/24 03:48:34;;;;;;;;;;;36.20;86.70;;;;;;5030399;28;20422;-70
2023/01/24 03:53:45;;;;;;;;;;;35.60;85.60;;;;;;5030706;28;19935;-70
2023/01/24 03:56:12;;;;;;;;;;;34.80;86.00;;;;;;5029660;28;19944;-70
2023/01/24 03:58:39;;;;;;;;;;;34.10;86.30;;;;;;5028380;28;20385;-71
2023/01/24 04:01:06;;;;;;;;;;;34.10;86.90;;;;;;5031576;28;19916;-71
2023/01/24 04:03:33;;;;;;;;;;;34.40;87.90;;;;;;5029874;28;20015;-71
2023/01/24 04:05:59;;;;;;;;;;;34.80;85.80;;;;;;5032480;28;19932;-70
2023/01/24 04:08:27;;;;;;;;;;;34.80;84.40;;;;;;5061186;28;19951;-71
2023/01/24 04:10:55;;;;;;;;;;;34.20;86.20;;;;;;5058526;28;19916;-70
2023/01/24 04:13:21;;;;;;;;;;;33.70;84.70;;;;;;5059845;28;19912;-69
2023/01/24 04:15:48;;;;;;;;;;;33.10;84.40;;;;;;5052868;28;19913;-71
2023/01/24 04:18:15;;;;;;;;;;;32.60;84.80;;;;;;5057387;28;19956;-70
2023/01/24 04:20:41;;;;;;;;;;;32.30;86.40;;;;;;5056203;28;19954;-73
2023/01/24 04:23:08;;;;;;;;;;;32.60;87.40;;;;;;5030400;28;20385;-71
2023/01/24 04:25:35;;;;;;;;;;;33.20;87.10;;;;;;5029266;28;19955;-69
2023/01/24 04:28:02;;;;;;;;;;;33.70;85.40;;;;;;5028685;28;19917;-71
2023/01/24 04:30:28;;;;;;;;;;;33.90;84.60;;;;;;5029276;28;19913;-71
2023/01/24 04:32:55;;;;;;;;;;;34.00;82.50;;;;;;5030150;28;19927;-70
2023/01/24 04:35:23;;;;;;;;;;;34.00;81.90;;;;;;5029751;28;19931;-70
2023/01/24 04:37:50;;;;;;;;;;;34.00;81.10;;;;;;5030143;28;19912;-70
2023/01/24 04:40:17;;;;;;;;;;;33.70;81.50;;;;;;5030502;28;20378;-71
2023/01/24 04:42:44;;;;;;;;;;;33.30;84.80;;;;;;5032577;28;19958;-70
2023/01/24 04:45:11;;;;;;;;;;;32.90;85.40;;;;;;5033049;28;19990;-69
2023/01/24 04:47:38;;;;;;;;;;;33.00;88.00;;;;;;5032699;28;19923;-68
2023/01/24 04:50:05;;;;;;;;;;;33.50;87.00;;;;;;5032956;28;19913;-71
2023/01/24 04:52:38;;;;;;;;;;;33.90;85.80;;;;;;5042822;28;22508;-71
2023/01/24 04:55:05;;;;;;;;;;;33.90;84.50;;;;;;5025767;28;20367;-71
2023/01/24 04:57:32;;;;;;;;;;;33.90;85.20;;;;;;5033176;28;19923;-70
2023/01/24 04:59:58;;;;;;;;;;;34.00;84.60;;;;;;5033906;28;19912;-70
2023/01/24 05:02:25;;;;;;;;;;;33.90;84.20;;;;;;5033734;28;19952;-70
2023/01/24 05:04:52;;;;;;;;;;;34.00;85.70;;;;;;5032653;28;20431;-71
2023/01/24 05:07:18;;;;;;;;;;;34.30;87.90;;;;;;5035060;28;19913;-71
2023/01/24 05:09:45;;;;;;;;;;;34.40;90.20;;;;;;5038644;28;20349;-71
2023/01/24 05:12:12;;;;;;;;;;;34.60;88.90;;;;;;5033434;28;20405;-71
2023/01/24 05:14:39;;;;;;;;;;;34.60;90.00;;;;;;5032881;28;19921;-70
2023/01/24 05:17:05;;;;;;;;;;;34.50;90.20;;;;;;5034557;28;19917;-71
2023/01/24 05:19:32;;;;;;;;;;;34.50;90.00;;;;;;5033205;28;19919;-72
2023/01/24 05:21:59;;;;;;;;;;;34.30;90.30;;;;;;5033659;28;19924;-72
2023/01/24 05:24:25;;;;;;;;;;;33.90;90.80;;;;;;5034271;28;19920;-72
2023/01/24 05:26:52;;;;;;;;;;;33.80;91.00;;;;;;5031662;28;19909;-70
2023/01/24 05:29:19;;;;;;;;;;;33.70;91.00;;;;;;5032894;28;20595;-70
2023/01/24 05:31:45;;;;;;;;;;;33.10;91.10;;;;;;5033361;28;19928;-72
2023/01/24 05:34:12;;;;;;;;;;;32.50;91.40;;;;;;5032266;28;19921;-71
2023/01/24 05:36:42;;;;;;;;;;;32.10;92.00;;;;;;5031456;28;19929;-72
2023/01/24 05:39:09;;;;;;;;;;;31.90;92.10;;;;;;5032000;28;19920;-71
2023/01/24 05:41:36;;;;;;;;;;;31.70;92.30;;;;;;5033619;28;19925;-71
2023/01/24 05:44:02;;;;;;;;;;;31.40;92.10;;;;;;5032363;28;19939;-70
2023/01/24 05:46:29;;;;;;;;;;;31.30;92.40;;;;;;5034996;28;19959;-71
2023/01/24 05:48:56;;;;;;;;;;;31.30;92.50;;;;;;5033116;28;19932;-72
2023/01/24 05:51:22;;;;;;;;;;;31.50;92.40;;;;;;5033498;28;19990;-72
2023/01/24 05:53:49;;;;;;;;;;;31.90;92.60;;;;;;5031761;28;19994;-70
2023/01/24 05:56:17;;;;;;;;;;;31.90;92.60;;;;;;5032757;28;19952;-70
2023/01/24 05:58:48;;;;;;;;;;;32.00;92.70;;;;;;5032551;28;19913;-71
2023/01/24 06:01:16;;;;;;;;;;;32.20;92.40;;;;;;5032721;28;19944;-72
2023/01/24 06:03:44;;;;;;;;;;;32.30;92.60;;;;;;5032480;28;19909;-71
2023/01/24 06:06:11;;;;;;;;;;;32.30;92.60;;;;;;5032189;28;19913;-71
2023/01/24 06:08:38;;;;;;;;;;;31.90;92.70;;;;;;5032135;28;19923;-70
2023/01/24 06:11:06;;;;;;;;;;;31.90;92.80;;;;;;5030318;28;19913;-70
2023/01/24 06:13:33;;;;;;;;;;;31.90;92.40;;;;;;5031817;28;19924;-71
2023/01/24 06:16:04;;;;;;;;;;;31.80;92.60;;;;;;5030565;28;20050;-70
2023/01/24 06:18:30;;;;;;;;;;;31.90;92.70;;;;;;5031339;28;20625;-70
2023/01/24 06:20:57;;;;;;;;;;;31.80;93.10;;;;;;5033216;28;19977;-69
2023/01/24 06:23:25;;;;;;;;;;;31.60;93.50;;;;;;5031634;28;20271;-71
2023/01/24 06:25:52;;;;;;;;;;;31.50;93.40;;;;;;5032385;28;19952;-71
2023/01/24 06:28:19;;;;;;;;;;;31.40;93.70;;;;;;5032041;28;20448;-70
2023/01/24 06:30:48;;;;;;;;;;;31.20;94.00;;;;;;5031107;28;20779;-68
2023/01/24 06:33:36;;;;;;;;;;;31.00;94.10;;;;;;5043274;28;19931;-71
2023/01/24 06:36:26;;;;;;;;;;;30.70;94.50;;;;;;5031911;28;19909;-70
2023/01/24 06:38:52;;;;;;;;;;;30.60;94.90;;;;;;5022922;28;19998;-71
2023/01/24 06:41:19;;;;;;;;;;;30.70;95.00;;;;;;5031491;28;19913;-70
2023/01/24 06:43:46;;;;;;;;;;;30.80;94.80;;;;;;5031147;28;20257;-69
2023/01/24 06:46:13;;;;;;;;;;;30.90;94.70;;;;;;5031708;28;19955;-69
2023/01/24 06:48:43;;;;;;;;;;;30.90;94.50;;;;;;5031333;28;19924;-68
2023/01/24 06:51:12;;;;;;;;;;;31.00;94.60;;;;;;5033262;28;19940;-70
2023/01/24 06:53:39;;;;;;;;;;;31.00;94.40;;;;;;5030725;28;19931;-70
2023/01/24 06:56:06;;;;;;;;;;;30.90;94.50;;;;;;5031779;28;19912;-70
2023/01/24 06:58:33;;;;;;;;;;;30.90;94.40;;;;;;5031932;28;19928;-71
2023/01/24 07:01:00;;;;;;;;;;;30.80;94.30;;;;;;5028872;28;20454;-71
2023/01/24 07:03:26;;;;;;;;;;;30.60;94.40;;;;;;5028866;28;19924;-69
2023/01/24 07:05:53;;;;;;;;;;;30.50;94.60;;;;;;5030905;28;19913;-70
2023/01/24 07:08:21;;;;;;;;;;;30.40;94.60;;;;;;5029602;28;19924;-70
2023/01/24 07:10:48;;;;;;;;;;;30.40;94.80;;;;;;5027913;28;19916;-69
2023/01/24 07:13:14;;;;;;;;;;;30.30;94.90;;;;;;5030856;28;19920;-69
2023/01/24 07:15:41;;;;;;;;;;;30.30;95.00;;;;;;5029963;28;19948;-70
2023/01/24 07:18:08;;;;;;;;;;;30.10;95.10;;;;;;5031079;28;19925;-72
2023/01/24 07:20:35;;;;;;;;;;;30.00;95.20;;;;;;5030503;28;22469;-71
2023/01/24 07:23:02;;;;;;;;;;;29.80;95.20;;;;;;5033080;28;19913;-70
2023/01/24 07:25:29;;;;;;;;;;;29.50;95.30;;;;;;5031739;28;20402;-69
2023/01/24 07:27:56;;;;;;;;;;;29.30;95.50;;;;;;5029472;28;19934;-71
2023/01/24 07:30:23;;;;;;;;;;;29.20;95.70;;;;;;5029459;28;20015;-70
2023/01/24 07:32:49;;;;;;;;;;;29.00;95.70;;;;;;5030979;28;19921;-70
2023/01/24 07:35:16;;;;;;;;;;;28.80;96.00;;;;;;5030237;28;19935;-70
2023/01/24 07:37:44;;;;;;;;;;;28.70;96.40;;;;;;5031851;28;19909;-68
2023/01/24 07:40:11;;;;;;;;;;;28.60;96.60;;;;;;5029492;28;20027;-70
2023/01/24 07:42:38;;;;;;;;;;;28.60;97.10;;;;;;5027499;28;20746;-70
2023/01/24 07:45:05;;;;;;;;;;;28.50;97.20;;;;;;5025590;28;19913;-69
2023/01/24 07:47:31;;;;;;;;;;;28.40;97.50;;;;;;5030416;28;19919;-70
2023/01/24 07:49:58;;;;;;;;;;;28.20;98.00;;;;;;5028887;28;19912;-70
2023/01/24 07:52:25;;;;;;;;;;;28.00;98.20;;;;;;5030449;28;19962;-71
2023/01/24 07:54:51;;;;;;;;;;;27.90;98.80;;;;;;5028665;28;19947;-71
2023/01/24 07:57:19;;;;;;;;;;;27.70;99.60;;;;;;5029724;28;20014;-71
2023/01/24 07:59:45;;;;;;;;;;;27.50;99.90;;;;;;5020034;28;19932;-71
2023/01/24 08:02:12;;;;;;;;;;;27.10;99.90;;;;;;5027407;28;19917;-72
2023/01/24 08:04:39;;;;;;;;;;;26.30;99.90;;;;;;5025426;28;19923;-70
2023/01/24 08:07:17;;;;;;;;;;;25.60;99.90;;;;;;5029881;28;19952;-71
2023/01/24 08:09:45;;;;;;;;;;;25.10;99.90;;;;;;5026575;28;20019;-70
2023/01/24 08:12:12;;;;;;;;;;;24.80;99.90;;;;;;5026742;28;19924;-71
2023/01/24 08:14:39;;;;;;;;;;;24.60;99.90;;;;;;5022285;28;19921;-72
2023/01/24 08:17:06;;;;;;;;;;;24.60;99.90;;;;;;5028977;28;19916;-71
2023/01/24 08:19:38;;;;;;;;;;;24.50;99.90;;;;;;5031432;28;19967;-73
2023/01/24 08:22:04;;;;;;;;;;;24.50;99.90;;;;;;5032474;28;19924;-71
2023/01/24 08:24:31;;;;;;;;;;;24.60;99.90;;;;;;5032290;28;20577;-73
2023/01/24 08:27:01;;;;;;;;;;;24.60;99.90;;;;;;5030728;28;19913;-71
2023/01/24 08:29:29;;;;;;;;;;;24.60;99.90;;;;;;5030027;28;20620;-71
2023/01/24 08:31:56;;;;;;;;;;;24.70;99.90;;;;;;5031257;28;19967;-69
2023/01/24 08:34:22;;;;;;;;;;;24.80;99.90;;;;;;5031553;28;19925;-70
2023/01/24 08:36:49;;;;;;;;;;;24.80;99.90;;;;;;5033831;28;19916;-70
2023/01/24 08:39:16;;;;;;;;;;;24.70;99.90;;;;;;5032934;28;20513;-72
2023/01/24 08:41:45;;;;;;;;;;;24.60;99.90;;;;;;5033109;28;19916;-71
2023/01/24 08:44:13;;;;;;;;;;;24.30;99.90;;;;;;5035615;28;19927;-72
2023/01/24 08:46:39;;;;;;;;;;;24.10;99.90;;;;;;5032183;28;20331;-71
2023/01/24 08:49:06;;;;;;;;;;;23.90;99.90;;;;;;5033161;28;19990;-73
2023/01/24 08:51:33;;;;;;;;;;;23.70;99.90;;;;;;5032953;28;19916;-71
2023/01/24 08:54:00;;;;;;;;;;;23.70;99.90;;;;;;5031479;28;19920;-71
2023/01/24 08:56:27;;;;;;;;;;;23.60;99.90;;;;;;5032484;28;19967;-72
2023/01/24 08:58:54;;;;;;;;;;;23.60;99.90;;;;;;5032289;28;19959;-72
2023/01/24 09:01:20;;;;;;;;;;;23.60;99.90;;;;;;5031496;28;19917;-70
2023/01/24 09:03:48;;;;;;;;;;;23.60;99.90;;;;;;5029872;28;19920;-69
2023/01/24 09:06:15;;;;;;;;;;;23.60;99.90;;;;;;5030108;28;19913;-73
2023/01/24 09:08:42;;;;;;;;;;;23.60;99.90;;;;;;5031302;28;20474;-73
2023/01/24 09:11:09;;;;;;;;;;;23.50;99.90;;;;;;5032648;28;19951;-76
2023/01/24 09:13:35;;;;;;;;;;;23.40;99.90;;;;;;5031689;28;20438;-73
2023/01/24 09:16:02;;;;;;;;;;;23.30;99.90;;;;;;5029795;28;19939;-73
2023/01/24 09:18:29;;;;;;;;;;;23.30;99.90;;;;;;5031085;28;19913;-72
2023/01/24 09:20:59;;;;;;;;;;;23.20;99.90;;;;;;5031150;28;19917;-75
2023/01/24 09:23:26;;;;;;;;;;;23.10;99.90;;;;;;5032262;28;19916;-74
2023/01/24 09:25:54;;;;;;;;;;;23.00;99.90;;;;;;5033225;28;19913;-73
2023/01/24 09:28:21;;;;;;;;;;;22.80;99.90;;;;;;5031793;28;19912;-73
2023/01/24 09:30:48;;;;;;;;;;;22.50;99.90;;;;;;5033131;28;20382;-72
2023/01/24 09:33:16;;;;;;;;;;;22.00;99.90;;;;;;5032192;28;19916;-74
2023/01/24 09:36:03;;;;;;;;;;;21.60;99.90;;;;;;5031769;28;20015;-72
2023/01/24 09:38:31;;;;;;;;;;;21.20;99.90;;;;;;5033664;28;19916;-74
2023/01/24 09:41:04;;;;;;;;;;;20.60;99.90;;;;;;5032212;28;20371;-72
2023/01/24 09:43:36;;;;;;;;;;;20.30;99.90;;;;;;5033206;28;20365;-72
2023/01/24 09:46:21;;;;;;;;;;;20.10;99.90;;;;;;5031989;28;20022;-73
2023/01/24 09:48:49;;;;;;;;;;;20.00;99.90;;;;;;5030510;28;19923;-73
2023/01/24 09:51:27;;;;;;;;;;;19.80;99.90;;;;;;5031613;28;19926;-74
2023/01/24 09:53:56;;;;;;;;;;;19.80;99.90;;;;;;5031967;28;20015;-73
2023/01/24 09:56:30;;;;;;;;;;;19.80;99.90;;;;;;5032949;28;19921;-73
2023/01/24 09:59:10;;;;;;;;;;;19.80;99.90;;;;;;5030072;28;19923;-73
2023/01/24 10:01:41;;;;;;;;;;;19.90;99.90;;;;;;5032100;28;20014;-73
2023/01/24 10:04:18;;;;;;;;;;;19.80;99.90;;;;;;5031132;28;19919;-74
2023/01/24 10:06:50;;;;;;;;;;;20.00;99.90;;;;;;5031093;28;19971;-74
2023/01/24 10:09:26;;;;;;;;;;;20.00;99.90;;;;;;5030914;28;19913;-72
2023/01/24 10:12:11;;;;;;;;;;;20.10;99.90;;;;;;5031590;28;19913;-74
2023/01/24 10:14:54;;;;;;;;;;;20.10;99.90;;;;;;5039246;28;19925;-73
2023/01/24 10:17:29;;;;;;;;;;;20.10;99.90;;;;;;5030770;28;19917;-73
2023/01/24 10:19:56;;;;;;;;;;;20.20;99.90;;;;;;5030746;28;19951;-72
2023/01/24 10:22:23;;;;;;;;;;;20.40;99.90;;;;;;5043878;28;19913;-72
2023/01/24 10:24:55;;;;;;;;;;;20.40;99.90;;;;;;5030759;28;20004;-71
2023/01/24 10:27:24;;;;;;;;;;;20.30;99.90;;;;;;5030935;28;20379;-71
2023/01/24 10:29:55;;;;;;;;;;;20.20;99.90;;;;;;5032505;28;19920;-71
2023/01/24 10:32:29;;;;;;;;;;;20.10;99.90;;;;;;5032420;28;19913;-71
2023/01/24 10:34:59;;;;;;;;;;;20.00;99.90;;;;;;5028147;28;20371;-71
2023/01/24 10:37:33;;;;;;;;;;;19.90;99.90;;;;;;5028307;28;19913;-71
2023/01/24 10:40:00;;;;;;;;;;;19.80;99.90;;;;;;5029063;28;20452;-71
2023/01/24 10:42:28;;;;;;;;;;;19.70;99.90;;;;;;5030091;28;19912;-72
2023/01/24 10:45:01;;;;;;;;;;;19.70;99.90;;;;;;5029403;28;19916;-74
2023/01/24 10:47:40;;;;;;;;;;;19.50;99.90;;;;;;5029990;28;19960;-73
2023/01/24 10:50:09;;;;;;;;;;;19.50;99.90;;;;;;5027676;28;20460;-72
2023/01/24 10:52:36;;;;;;;;;;;19.40;99.90;;;;;;5027040;28;19916;-70
2023/01/24 10:55:05;;;;;;;;;;;19.40;99.90;;;;;;5027391;28;19920;-71
2023/01/24 10:57:32;;;;;;;;;;;19.50;99.90;;;;;;5029137;28;19943;-71
2023/01/24 11:00:05;;;;;;;;;;;19.50;99.90;;;;;;5027551;28;19917;-70
2023/01/24 11:02:35;;;;;;;;;;;19.50;99.90;;;;;;5030193;28;22921;-71
2023/01/24 11:05:04;;;;;;;;;;;19.40;99.90;;;;;;5030290;28;20283;-71
2023/01/24 11:07:38;;;;;;;;;;;19.40;99.90;;;;;;5030117;28;20414;-71
2023/01/24 11:10:25;;;;;;;;;;;19.50;99.90;;;;;;5030829;28;19978;-70
2023/01/24 11:12:56;;;;;;;;;;;19.70;99.90;;;;;;5027815;28;19990;-72
2023/01/24 11:15:25;;;;;;;;;;;19.70;99.90;;;;;;5028087;28;19927;-71
2023/01/24 11:17:59;;;;;;;;;;;19.60;99.90;;;;;;5027963;28;20117;-71
2023/01/24 11:20:26;;;;;;;;;;;19.60;99.90;;;;;;5029182;28;19921;-71
2023/01/24 11:23:01;;;;;;;;;;;19.70;99.90;;;;;;5029931;28;20477;-70
2023/01/24 11:25:28;;;;;;;;;;;19.80;99.90;;;;;;5028767;28;19944;-71
2023/01/24 11:27:54;;;;;;;;;;;19.80;99.90;;;;;;5029334;28;19955;-70
2023/01/24 11:30:22;;;;;;;;;;;19.80;99.90;;;;;;5029816;28;19916;-72
2023/01/24 11:33:07;;;;;;;;;;;19.80;99.90;;;;;;5028899;28;19916;-71
2023/01/24 11:35:36;;;;;;;;;;;19.90;99.90;;;;;;5028069;28;19928;-72
2023/01/24 11:38:22;;;;;;;;;;;19.90;99.90;;;;;;5029578;28;19955;-72
2023/01/24 11:40:52;;;;;;;;;;;20.10;99.90;;;;;;5028199;28;20349;-70
2023/01/24 11:43:34;;;;;;;;;;;20.10;99.90;;;;;;5028088;28;19974;-72
2023/01/24 11:46:04;;;;;;;;;;;20.20;99.90;;;;;;5026735;28;19972;-70
2023/01/24 11:48:53;;;;;;;;;;;20.20;99.90;;;;;;5028233;28;20326;-72
2023/01/24 11:51:35;;;;;;;;;;;20.20;99.90;;;;;;5030079;28;19924;-71
2023/01/24 11:54:08;;;;;;;;;;;20.10;99.90;;;;;;5032097;28;20670;-71
2023/01/24 11:56:38;;;;;;;;;;;20.10;99.90;;;;;;5032230;28;19922;-70
2023/01/24 11:59:06;;;;;;;;;;;20.10;99.90;;;;;;5034077;28;19995;-69
2023/01/24 12:01:43;;;;;;;;;;;20.00;99.90;;;;;;5051023;28;19924;-66
2023/01/24 12:04:22;;;;;;;;;;;19.90;99.90;;;;;;5034136;28;19917;-71
2023/01/24 12:06:58;;;;;;;;;;;19.80;99.90;;;;;;5035155;28;20039;-70
2023/01/24 12:09:26;;;;;;;;;;;19.80;99.90;;;;;;5031385;28;20035;-70
2023/01/24 12:12:08;;;;;;;;;;;19.70;99.90;;;;;;5039468;28;19908;-71
2023/01/24 12:14:53;;;;;;;;;;;19.70;99.90;;;;;;5028279;28;19970;-73
2023/01/24 12:17:23;;;;;;;;;;;19.60;99.90;;;;;;5025569;28;20488;-69
2023/01/24 12:20:01;;;;;;;;;;;19.60;99.90;;;;;;5024822;28;19913;-72
2023/01/24 12:22:28;;;;;;;;;;;19.50;99.90;;;;;;5032987;28;20284;-70
2023/01/24 12:25:11;;;;;;;;;;;19.40;99.90;;;;;;5030043;28;19912;-73
2023/01/24 12:27:38;;;;;;;;;;;19.40;99.90;;;;;;5032305;28;20092;-71
2023/01/24 12:30:15;;;;;;;;;;;19.40;99.90;;;;;;5031064;28;20347;-70
2023/01/24 12:32:48;;;;;;;;;;;19.30;99.90;;;;;;5032321;28;19954;-72
2023/01/24 12:35:17;;;;;;;;;;;19.40;99.90;;;;;;5030885;28;19924;-71
2023/01/24 12:37:44;;;;;;;;;;;19.30;99.90;;;;;;5032438;28;19982;-70
2023/01/24 12:40:13;;;;;;;;;;;19.30;99.90;;;;;;5031694;28;20223;-71
2023/01/24 12:43:03;;;;;;;;;;;19.30;99.90;;;;;;5032621;28;22997;-72
2023/01/24 12:45:33;;;;;;;;;;;19.30;99.90;;;;;;5030993;28;19909;-69
2023/01/24 12:48:17;;;;;;;;;;;19.20;99.90;;;;;;5032478;28;19928;-73
2023/01/24 12:50:58;;;;;;;;;;;19.20;99.90;;;;;;5030945;28;19955;-70
2023/01/24 12:53:32;;;;;;;;;;;19.30;99.90;;;;;;5030995;28;19935;-71
2023/01/24 12:56:01;;;;;;;;;;;19.20;99.90;;;;;;5031220;28;19913;-71
2023/01/24 12:58:31;;;;;;;;;;;19.20;99.90;;;;;;5031754;28;20434;-74
2023/01/24 13:01:26;;;;;;;;;;;19.20;99.90;;;;;;5031796;28;19908;-74
2023/01/24 13:03:55;;;;;;;;;;;19.20;99.90;;;;;;5030986;28;19971;-72
2023/01/24 13:06:45;;;;;;;;;;;19.10;99.90;;;;;;5031643;28;19917;-73
2023/01/24 13:09:34;;;;;;;;;;;19.20;99.90;;;;;;5028258;28;19916;-71
2023/01/24 13:12:03;;;;;;;;;;;19.40;99.90;;;;;;5032360;28;19909;-70
2023/01/24 13:14:59;;;;;;;;;;;19.80;99.90;;;;;;5032153;28;19921;-69
2023/01/24 13:17:39;;;;;;;;;;;20.00;99.90;;;;;;4978469;28;19963;-69
2023/01/24 13:20:24;;;;;;;;;;;19.90;99.90;;;;;;5031066;28;19944;-70
2023/01/24 13:23:03;;;;;;;;;;;19.90;99.90;;;;;;5031786;28;19909;-70
2023/01/24 13:25:35;;;;;;;;;;;19.80;99.90;;;;;;5029996;28;19917;-70
2023/01/24 13:28:08;;;;;;;;;;;19.80;99.90;;;;;;5031365;28;19960;-70
2023/01/24 13:30:35;;;;;;;;;;;19.60;99.90;;;;;;5030265;28;19921;-71
2023/01/24 13:33:03;;;;;;;;;;;19.60;99.90;;;;;;5031653;28;20610;-71
2023/01/24 13:35:30;;;;;;;;;;;19.50;99.90;;;;;;5030763;28;20355;-69
2023/01/24 13:38:03;;;;;;;;;;;19.30;99.90;;;;;;5030721;28;20406;-72
2023/01/24 13:40:34;;;;;;;;;;;19.20;99.90;;;;;;5030628;28;19943;-70
2023/01/24 13:43:02;;;;;;;;;;;19.10;99.90;;;;;;5033117;28;20274;-70
2023/01/24 13:45:30;;;;;;;;;;;19.10;99.90;;;;;;5029498;28;19990;-71
2023/01/24 13:47:58;;;;;;;;;;;19.00;99.90;;;;;;5030947;28;19972;-69
2023/01/24 13:50:29;;;;;;;;;;;19.00;99.90;;;;;;5030506;28;19913;-69
2023/01/24 13:53:00;;;;;;;;;;;19.00;99.90;;;;;;5032922;28;20012;-70
2023/01/24 13:55:32;;;;;;;;;;;19.00;99.90;;;;;;5032480;28;19944;-70
2023/01/24 13:58:09;;;;;;;;;;;19.00;99.90;;;;;;5031151;28;20004;-70
2023/01/24 14:00:46;;;;;;;;;;;19.10;99.90;;;;;;5028790;28;20512;-72
2023/01/24 14:03:22;;;;;;;;;;;19.10;99.90;;;;;;5028421;28;19959;-71
2023/01/24 14:06:03;;;;;;;;;;;19.10;99.90;;;;;;5029424;28;19951;-70
2023/01/24 14:08:47;;;;;;;;;;;19.00;99.90;;;;;;5030051;28;19916;-69
2023/01/24 14:11:18;;;;;;;;;;;19.00;99.90;;;;;;5032217;28;19917;-69
2023/01/24 14:13:48;;;;;;;;;;;18.90;99.90;;;;;;5030206;28;19980;-75
2023/01/24 14:16:33;;;;;;;;;;;18.90;99.90;;;;;;5028909;28;19909;-70
2023/01/24 14:19:07;;;;;;;;;;;18.80;99.90;;;;;;5030645;28;19909;-72
2023/01/24 14:21:44;;;;;;;;;;;18.60;99.90;;;;;;5029939;28;19970;-72
2023/01/24 14:24:28;;;;;;;;;;;18.60;99.90;;;;;;5037967;28;19912;-71
2023/01/24 14:26:56;;;;;;;;;;;18.60;99.90;;;;;;5030073;28;19970;-70
2023/01/24 14:29:29;;;;;;;;;;;18.50;99.90;;;;;;5030156;28;19931;-70
2023/01/24 14:32:00;;;;;;;;;;;18.40;99.90;;;;;;5032373;28;19931;-71
2023/01/24 14:34:34;;;;;;;;;;;18.40;99.90;;;;;;5028849;28;20324;-69
2023/01/24 14:37:10;;;;;;;;;;;18.40;99.90;;;;;;5029240;28;19974;-69
2023/01/24 14:39:37;;;;;;;;;;;18.30;99.90;;;;;;5029416;28;19916;-69
2023/01/24 14:42:06;;;;;;;;;;;18.20;99.90;;;;;;5028779;28;20649;-70
2023/01/24 14:44:34;;;;;;;;;;;18.20;99.90;;;;;;5034391;28;20306;-70
2023/01/24 14:47:05;;;;;;;;;;;18.20;99.90;;;;;;5029077;28;19923;-69
2023/01/24 14:49:57;;;;;;;;;;;18.20;99.90;;;;;;5029467;28;19912;-69
2023/01/24 14:52:24;;;;;;;;;;;18.10;99.90;;;;;;5028055;28;21964;-69
2023/01/24 14:54:52;;;;;;;;;;;18.00;99.90;;;;;;5028945;28;20019;-67
2023/01/24 14:57:45;;;;;;;;;;;18.00;99.90;;;;;;5028860;28;19917;-69
2023/01/24 15:00:13;;;;;;;;;;;18.00;99.90;;;;;;5027090;28;20315;-68
2023/01/24 15:02:51;;;;;;;;;;;18.00;99.90;;;;;;5028601;28;19916;-68
2023/01/24 15:05:26;;;;;;;;;;;18.00;99.90;;;;;;5029138;28;19909;-69
2023/01/24 15:07:54;;;;;;;;;;;18.00;99.90;;;;;;5038827;28;19943;-69